sensor_id;sensor_type;location;lat;lon;timestamp;P1;durP1;ratioP1;P2;durP2;ratioP2
74995;SDS011;63545;51.690;5.202;2023-09-07T00:01:23;16.00;;;10.00;;
74995;SDS011;63545;51.690;5.202;2023-09-07T00:03:48;13.07;;;9.80;;
74995;SDS011;63545;51.690;5.202;2023-09-07T00:06:14;14.67;;;9.47;;
74995;SDS011;63545;51.690;5.202;2023-09-07T00:08:39;12.93;;;9.47;;
74995;SDS011;63545;51.690;5.202;2023-09-07T00:11:05;13.68;;;9.60;;
74995;SDS011;63545;51.690;5.202;2023-09-07T00:13:31;13.33;;;9.23;;
74995;SDS011;63545;51.690;5.202;2023-09-07T00:16:00;14.48;;;9.00;;
74995;SDS011;63545;51.690;5.202;2023-09-07T00:18:26;14.82;;;9.23;;
74995;SDS011;63545;51.690;5.202;2023-09-07T00:20:52;13.43;;;9.37;;
74995;SDS011;63545;51.690;5.202;2023-09-07T00:23:17;12.60;;;9.97;;
74995;SDS011;63545;51.690;5.202;2023-09-07T00:25:44;17.20;;;9.67;;
74995;SDS011;63545;51.690;5.202;2023-09-07T00:28:10;16.30;;;9.50;;
74995;SDS011;63545;51.690;5.202;2023-09-07T00:30:35;14.70;;;9.57;;
74995;SDS011;63545;51.690;5.202;2023-09-07T00:33:00;13.43;;;9.53;;
74995;SDS011;63545;51.690;5.202;2023-09-07T00:35:26;16.43;;;10.20;;
74995;SDS011;63545;51.690;5.202;2023-09-07T00:37:51;17.13;;;9.73;;
74995;SDS011;63545;51.690;5.202;2023-09-07T00:40:16;13.17;;;9.43;;
74995;SDS011;63545;51.690;5.202;2023-09-07T00:42:42;13.07;;;9.47;;
74995;SDS011;63545;51.690;5.202;2023-09-07T00:45:07;12.15;;;9.10;;
74995;SDS011;63545;51.690;5.202;2023-09-07T00:47:34;14.53;;;8.97;;
74995;SDS011;63545;51.690;5.202;2023-09-07T00:50:01;12.30;;;8.80;;
74995;SDS011;63545;51.690;5.202;2023-09-07T00:52:28;14.10;;;9.70;;
74995;SDS011;63545;51.690;5.202;2023-09-07T00:54:53;15.30;;;9.70;;
74995;SDS011;63545;51.690;5.202;2023-09-07T00:57:18;14.23;;;9.87;;
74995;SDS011;63545;51.690;5.202;2023-09-07T00:59:44;13.70;;;9.87;;
74995;SDS011;63545;51.690;5.202;2023-09-07T01:02:09;13.77;;;10.30;;
74995;SDS011;63545;51.690;5.202;2023-09-07T01:04:35;15.60;;;10.27;;
74995;SDS011;63545;51.690;5.202;2023-09-07T01:07:07;14.57;;;9.97;;
74995;SDS011;63545;51.690;5.202;2023-09-07T01:09:38;15.80;;;10.57;;
74995;SDS011;63545;51.690;5.202;2023-09-07T01:12:05;12.57;;;9.68;;
74995;SDS011;63545;51.690;5.202;2023-09-07T01:14:35;15.35;;;10.68;;
74995;SDS011;63545;51.690;5.202;2023-09-07T01:17:01;15.60;;;10.23;;
74995;SDS011;63545;51.690;5.202;2023-09-07T01:19:26;15.05;;;10.90;;
74995;SDS011;63545;51.690;5.202;2023-09-07T01:21:52;12.63;;;10.17;;
74995;SDS011;63545;51.690;5.202;2023-09-07T01:24:18;14.90;;;10.70;;
74995;SDS011;63545;51.690;5.202;2023-09-07T01:26:43;14.80;;;10.23;;
74995;SDS011;63545;51.690;5.202;2023-09-07T01:29:09;14.00;;;9.90;;
74995;SDS011;63545;51.690;5.202;2023-09-07T01:31:35;13.77;;;10.57;;
74995;SDS011;63545;51.690;5.202;2023-09-07T01:34:01;14.23;;;10.15;;
74995;SDS011;63545;51.690;5.202;2023-09-07T01:36:26;18.37;;;10.57;;
74995;SDS011;63545;51.690;5.202;2023-09-07T01:38:52;15.73;;;10.53;;
74995;SDS011;63545;51.690;5.202;2023-09-07T01:41:17;15.43;;;9.87;;
74995;SDS011;63545;51.690;5.202;2023-09-07T01:43:42;14.13;;;10.10;;
74995;SDS011;63545;51.690;5.202;2023-09-07T01:46:08;13.73;;;10.60;;
74995;SDS011;63545;51.690;5.202;2023-09-07T01:48:34;15.20;;;10.90;;
74995;SDS011;63545;51.690;5.202;2023-09-07T01:51:00;16.77;;;10.37;;
74995;SDS011;63545;51.690;5.202;2023-09-07T01:53:25;15.73;;;11.07;;
74995;SDS011;63545;51.690;5.202;2023-09-07T01:55:53;18.03;;;11.07;;
74995;SDS011;63545;51.690;5.202;2023-09-07T01:58:19;15.98;;;11.57;;
74995;SDS011;63545;51.690;5.202;2023-09-07T02:00:45;17.20;;;11.77;;
74995;SDS011;63545;51.690;5.202;2023-09-07T02:03:10;15.17;;;11.73;;
74995;SDS011;63545;51.690;5.202;2023-09-07T02:05:35;17.40;;;11.90;;
74995;SDS011;63545;51.690;5.202;2023-09-07T02:08:01;17.13;;;11.80;;
74995;SDS011;63545;51.690;5.202;2023-09-07T02:10:26;15.70;;;12.40;;
74995;SDS011;63545;51.690;5.202;2023-09-07T02:12:51;17.00;;;12.47;;
74995;SDS011;63545;51.690;5.202;2023-09-07T02:15:17;23.63;;;12.93;;
74995;SDS011;63545;51.690;5.202;2023-09-07T02:17:42;19.37;;;13.87;;
74995;SDS011;63545;51.690;5.202;2023-09-07T02:20:10;18.52;;;14.45;;
74995;SDS011;63545;51.690;5.202;2023-09-07T02:22:36;19.50;;;15.32;;
74995;SDS011;63545;51.690;5.202;2023-09-07T02:25:02;23.50;;;15.18;;
74995;SDS011;63545;51.690;5.202;2023-09-07T02:27:28;20.60;;;14.93;;
74995;SDS011;63545;51.690;5.202;2023-09-07T02:29:53;20.57;;;14.83;;
74995;SDS011;63545;51.690;5.202;2023-09-07T02:32:19;19.95;;;15.73;;
74995;SDS011;63545;51.690;5.202;2023-09-07T02:34:44;21.50;;;15.33;;
74995;SDS011;63545;51.690;5.202;2023-09-07T02:37:09;21.13;;;15.83;;
74995;SDS011;63545;51.690;5.202;2023-09-07T02:39:35;21.03;;;15.93;;
74995;SDS011;63545;51.690;5.202;2023-09-07T02:42:00;19.30;;;14.60;;
74995;SDS011;63545;51.690;5.202;2023-09-07T02:44:25;20.53;;;14.73;;
74995;SDS011;63545;51.690;5.202;2023-09-07T02:46:51;20.90;;;15.37;;
74995;SDS011;63545;51.690;5.202;2023-09-07T02:49:16;23.47;;;15.63;;
74995;SDS011;63545;51.690;5.202;2023-09-07T02:51:41;22.92;;;14.48;;
74995;SDS011;63545;51.690;5.202;2023-09-07T02:54:07;20.43;;;15.93;;
74995;SDS011;63545;51.690;5.202;2023-09-07T02:56:32;24.70;;;15.90;;
74995;SDS011;63545;51.690;5.202;2023-09-07T02:58:58;20.43;;;15.10;;
74995;SDS011;63545;51.690;5.202;2023-09-07T03:01:23;18.30;;;14.93;;
74995;SDS011;63545;51.690;5.202;2023-09-07T03:03:48;22.45;;;14.95;;
74995;SDS011;63545;51.690;5.202;2023-09-07T03:06:14;21.30;;;15.83;;
74995;SDS011;63545;51.690;5.202;2023-09-07T03:08:41;22.70;;;15.10;;
74995;SDS011;63545;51.690;5.202;2023-09-07T03:11:08;20.13;;;14.27;;
74995;SDS011;63545;51.690;5.202;2023-09-07T03:13:34;18.57;;;14.57;;
74995;SDS011;63545;51.690;5.202;2023-09-07T03:15:59;22.80;;;14.77;;
74995;SDS011;63545;51.690;5.202;2023-09-07T03:18:25;20.77;;;15.37;;
74995;SDS011;63545;51.690;5.202;2023-09-07T03:20:52;19.15;;;14.45;;
74995;SDS011;63545;51.690;5.202;2023-09-07T03:23:18;19.43;;;14.33;;
74995;SDS011;63545;51.690;5.202;2023-09-07T03:25:44;20.90;;;14.73;;
74995;SDS011;63545;51.690;5.202;2023-09-07T03:28:09;19.93;;;14.83;;
74995;SDS011;63545;51.690;5.202;2023-09-07T03:30:34;21.20;;;14.93;;
74995;SDS011;63545;51.690;5.202;2023-09-07T03:33:00;22.87;;;15.97;;
74995;SDS011;63545;51.690;5.202;2023-09-07T03:35:25;18.50;;;14.37;;
74995;SDS011;63545;51.690;5.202;2023-09-07T03:37:51;18.50;;;14.25;;
74995;SDS011;63545;51.690;5.202;2023-09-07T03:40:16;19.57;;;14.10;;
74995;SDS011;63545;51.690;5.202;2023-09-07T03:42:41;21.53;;;14.40;;
74995;SDS011;63545;51.690;5.202;2023-09-07T03:45:08;22.92;;;15.35;;
74995;SDS011;63545;51.690;5.202;2023-09-07T03:47:34;20.13;;;14.73;;
74995;SDS011;63545;51.690;5.202;2023-09-07T03:49:59;22.50;;;15.35;;
74995;SDS011;63545;51.690;5.202;2023-09-07T03:52:26;20.30;;;14.37;;
74995;SDS011;63545;51.690;5.202;2023-09-07T03:54:53;24.85;;;15.68;;
74995;SDS011;63545;51.690;5.202;2023-09-07T03:57:19;23.63;;;15.95;;
74995;SDS011;63545;51.690;5.202;2023-09-07T03:59:45;20.67;;;15.90;;
74995;SDS011;63545;51.690;5.202;2023-09-07T04:02:11;18.70;;;15.32;;
74995;SDS011;63545;51.690;5.202;2023-09-07T04:04:37;19.55;;;15.45;;
74995;SDS011;63545;51.690;5.202;2023-09-07T04:07:03;19.83;;;14.83;;
74995;SDS011;63545;51.690;5.202;2023-09-07T04:09:28;20.23;;;16.17;;
74995;SDS011;63545;51.690;5.202;2023-09-07T04:11:53;23.07;;;15.83;;
74995;SDS011;63545;51.690;5.202;2023-09-07T04:14:19;26.50;;;15.77;;
74995;SDS011;63545;51.690;5.202;2023-09-07T04:16:44;20.92;;;15.93;;
74995;SDS011;63545;51.690;5.202;2023-09-07T04:19:09;19.57;;;15.90;;
74995;SDS011;63545;51.690;5.202;2023-09-07T04:21:35;21.63;;;15.63;;
74995;SDS011;63545;51.690;5.202;2023-09-07T04:24:01;20.80;;;15.48;;
74995;SDS011;63545;51.690;5.202;2023-09-07T04:26:27;21.80;;;16.00;;
74995;SDS011;63545;51.690;5.202;2023-09-07T04:28:52;25.83;;;16.57;;
74995;SDS011;63545;51.690;5.202;2023-09-07T04:31:17;22.60;;;16.33;;
74995;SDS011;63545;51.690;5.202;2023-09-07T04:33:43;23.20;;;15.07;;
74995;SDS011;63545;51.690;5.202;2023-09-07T04:36:09;25.23;;;15.47;;
74995;SDS011;63545;51.690;5.202;2023-09-07T04:38:35;26.98;;;16.92;;
74995;SDS011;63545;51.690;5.202;2023-09-07T04:43:32;21.38;;;15.23;;
74995;SDS011;63545;51.690;5.202;2023-09-07T04:45:58;21.27;;;14.97;;
74995;SDS011;63545;51.690;5.202;2023-09-07T04:48:23;19.73;;;15.40;;
74995;SDS011;63545;51.690;5.202;2023-09-07T04:50:52;21.47;;;16.00;;
74995;SDS011;63545;51.690;5.202;2023-09-07T04:53:35;21.67;;;15.20;;
74995;SDS011;63545;51.690;5.202;2023-09-07T04:56:02;21.65;;;14.23;;
74995;SDS011;63545;51.690;5.202;2023-09-07T04:58:28;19.63;;;14.73;;
74995;SDS011;63545;51.690;5.202;2023-09-07T05:00:54;21.83;;;14.93;;
74995;SDS011;63545;51.690;5.202;2023-09-07T05:03:19;18.37;;;14.70;;
74995;SDS011;63545;51.690;5.202;2023-09-07T05:05:44;25.65;;;15.82;;
74995;SDS011;63545;51.690;5.202;2023-09-07T05:08:10;19.50;;;15.13;;
74995;SDS011;63545;51.690;5.202;2023-09-07T05:10:36;19.67;;;15.00;;
74995;SDS011;63545;51.690;5.202;2023-09-07T05:13:02;21.77;;;14.90;;
74995;SDS011;63545;51.690;5.202;2023-09-07T05:15:27;23.50;;;15.35;;
74995;SDS011;63545;51.690;5.202;2023-09-07T05:17:53;22.90;;;15.07;;
74995;SDS011;63545;51.690;5.202;2023-09-07T05:20:19;23.17;;;14.60;;
74995;SDS011;63545;51.690;5.202;2023-09-07T05:22:44;22.53;;;15.67;;
74995;SDS011;63545;51.690;5.202;2023-09-07T05:25:10;21.88;;;16.13;;
74995;SDS011;63545;51.690;5.202;2023-09-07T05:27:36;21.97;;;15.13;;
74995;SDS011;63545;51.690;5.202;2023-09-07T05:30:02;22.65;;;15.02;;
74995;SDS011;63545;51.690;5.202;2023-09-07T05:32:28;23.48;;;15.77;;
74995;SDS011;63545;51.690;5.202;2023-09-07T05:34:53;20.93;;;14.43;;
74995;SDS011;63545;51.690;5.202;2023-09-07T05:37:19;21.60;;;15.10;;
74995;SDS011;63545;51.690;5.202;2023-09-07T05:39:44;20.57;;;15.57;;
74995;SDS011;63545;51.690;5.202;2023-09-07T05:42:10;23.63;;;14.97;;
74995;SDS011;63545;51.690;5.202;2023-09-07T05:44:35;22.27;;;14.60;;
74995;SDS011;63545;51.690;5.202;2023-09-07T05:47:01;20.53;;;15.97;;
74995;SDS011;63545;51.690;5.202;2023-09-07T05:49:27;22.50;;;15.90;;
74995;SDS011;63545;51.690;5.202;2023-09-07T05:51:53;22.03;;;14.67;;
74995;SDS011;63545;51.690;5.202;2023-09-07T05:54:18;23.05;;;14.98;;
74995;SDS011;63545;51.690;5.202;2023-09-07T05:56:44;26.17;;;15.30;;
74995;SDS011;63545;51.690;5.202;2023-09-07T05:59:09;24.93;;;14.10;;
74995;SDS011;63545;51.690;5.202;2023-09-07T06:01:34;24.63;;;15.33;;
74995;SDS011;63545;51.690;5.202;2023-09-07T06:04:00;24.53;;;15.33;;
74995;SDS011;63545;51.690;5.202;2023-09-07T06:06:25;23.10;;;15.98;;
74995;SDS011;63545;51.690;5.202;2023-09-07T06:08:51;22.17;;;15.47;;
74995;SDS011;63545;51.690;5.202;2023-09-07T06:11:16;21.03;;;14.93;;
74995;SDS011;63545;51.690;5.202;2023-09-07T06:13:41;28.53;;;15.53;;
74995;SDS011;63545;51.690;5.202;2023-09-07T06:16:07;22.73;;;15.57;;
74995;SDS011;63545;51.690;5.202;2023-09-07T06:18:32;23.23;;;15.63;;
74995;SDS011;63545;51.690;5.202;2023-09-07T06:20:57;23.67;;;15.37;;
74995;SDS011;63545;51.690;5.202;2023-09-07T06:23:23;21.37;;;15.57;;
74995;SDS011;63545;51.690;5.202;2023-09-07T06:25:48;22.07;;;15.87;;
74995;SDS011;63545;51.690;5.202;2023-09-07T06:28:14;21.63;;;15.68;;
74995;SDS011;63545;51.690;5.202;2023-09-07T06:30:39;23.80;;;15.37;;
74995;SDS011;63545;51.690;5.202;2023-09-07T06:33:05;23.30;;;15.13;;
74995;SDS011;63545;51.690;5.202;2023-09-07T06:35:30;24.57;;;15.77;;
74995;SDS011;63545;51.690;5.202;2023-09-07T06:37:56;22.03;;;16.00;;
74995;SDS011;63545;51.690;5.202;2023-09-07T06:40:21;21.98;;;16.63;;
74995;SDS011;63545;51.690;5.202;2023-09-07T06:42:47;21.67;;;16.03;;
74995;SDS011;63545;51.690;5.202;2023-09-07T06:45:12;21.83;;;16.50;;
74995;SDS011;63545;51.690;5.202;2023-09-07T06:47:37;24.63;;;16.43;;
74995;SDS011;63545;51.690;5.202;2023-09-07T06:50:03;29.55;;;16.77;;
74995;SDS011;63545;51.690;5.202;2023-09-07T06:52:29;23.40;;;15.97;;
74995;SDS011;63545;51.690;5.202;2023-09-07T06:54:55;26.83;;;16.20;;
74995;SDS011;63545;51.690;5.202;2023-09-07T06:57:20;21.80;;;15.93;;
74995;SDS011;63545;51.690;5.202;2023-09-07T06:59:46;21.27;;;15.70;;
74995;SDS011;63545;51.690;5.202;2023-09-07T07:02:11;22.15;;;15.90;;
74995;SDS011;63545;51.690;5.202;2023-09-07T07:04:37;24.37;;;16.00;;
74995;SDS011;63545;51.690;5.202;2023-09-07T07:07:02;22.63;;;15.73;;
74995;SDS011;63545;51.690;5.202;2023-09-07T07:09:29;20.70;;;16.02;;
74995;SDS011;63545;51.690;5.202;2023-09-07T07:11:55;24.33;;;16.33;;
74995;SDS011;63545;51.690;5.202;2023-09-07T07:14:21;23.27;;;15.82;;
74995;SDS011;63545;51.690;5.202;2023-09-07T07:16:46;23.63;;;16.23;;
74995;SDS011;63545;51.690;5.202;2023-09-07T07:19:11;22.03;;;16.47;;
74995;SDS011;63545;51.690;5.202;2023-09-07T07:21:37;21.90;;;15.43;;
74995;SDS011;63545;51.690;5.202;2023-09-07T07:24:02;26.10;;;15.77;;
74995;SDS011;63545;51.690;5.202;2023-09-07T07:26:31;20.25;;;15.40;;
74995;SDS011;63545;51.690;5.202;2023-09-07T07:28:56;28.50;;;16.77;;
74995;SDS011;63545;51.690;5.202;2023-09-07T07:31:21;25.20;;;16.67;;
74995;SDS011;63545;51.690;5.202;2023-09-07T07:33:47;24.90;;;16.23;;
74995;SDS011;63545;51.690;5.202;2023-09-07T07:36:13;27.45;;;15.52;;
74995;SDS011;63545;51.690;5.202;2023-09-07T07:38:38;21.75;;;14.95;;
74995;SDS011;63545;51.690;5.202;2023-09-07T07:41:04;19.60;;;14.83;;
74995;SDS011;63545;51.690;5.202;2023-09-07T07:43:30;23.00;;;14.73;;
74995;SDS011;63545;51.690;5.202;2023-09-07T07:45:55;21.65;;;14.88;;
74995;SDS011;63545;51.690;5.202;2023-09-07T07:48:20;23.70;;;14.90;;
74995;SDS011;63545;51.690;5.202;2023-09-07T07:50:46;23.23;;;14.90;;
74995;SDS011;63545;51.690;5.202;2023-09-07T07:53:11;25.03;;;14.07;;
74995;SDS011;63545;51.690;5.202;2023-09-07T07:55:37;26.97;;;13.87;;
74995;SDS011;63545;51.690;5.202;2023-09-07T07:58:06;21.77;;;13.68;;
74995;SDS011;63545;51.690;5.202;2023-09-07T08:00:34;22.20;;;13.27;;
74995;SDS011;63545;51.690;5.202;2023-09-07T08:03:03;19.73;;;12.13;;
74995;SDS011;63545;51.690;5.202;2023-09-07T08:05:31;16.92;;;10.68;;
74995;SDS011;63545;51.690;5.202;2023-09-07T08:07:56;17.37;;;10.77;;
74995;SDS011;63545;51.690;5.202;2023-09-07T08:10:22;18.65;;;11.05;;
74995;SDS011;63545;51.690;5.202;2023-09-07T08:12:47;19.43;;;10.70;;
74995;SDS011;63545;51.690;5.202;2023-09-07T08:15:13;18.13;;;10.97;;
74995;SDS011;63545;51.690;5.202;2023-09-07T08:17:39;12.23;;;9.57;;
74995;SDS011;63545;51.690;5.202;2023-09-07T08:20:05;14.43;;;9.40;;
74995;SDS011;63545;51.690;5.202;2023-09-07T08:22:32;16.92;;;9.27;;
74995;SDS011;63545;51.690;5.202;2023-09-07T08:25:00;13.93;;;8.93;;
74995;SDS011;63545;51.690;5.202;2023-09-07T08:27:25;13.93;;;7.87;;
74995;SDS011;63545;51.690;5.202;2023-09-07T08:29:51;17.15;;;8.23;;
74995;SDS011;63545;51.690;5.202;2023-09-07T08:32:18;10.15;;;7.05;;
74995;SDS011;63545;51.690;5.202;2023-09-07T08:34:44;15.97;;;8.07;;
74995;SDS011;63545;51.690;5.202;2023-09-07T08:37:09;11.10;;;8.10;;
74995;SDS011;63545;51.690;5.202;2023-09-07T08:39:34;11.77;;;7.80;;
74995;SDS011;63545;51.690;5.202;2023-09-07T08:42:01;13.10;;;7.90;;
74995;SDS011;63545;51.690;5.202;2023-09-07T08:44:28;14.55;;;7.90;;
74995;SDS011;63545;51.690;5.202;2023-09-07T08:46:54;17.40;;;8.30;;
74995;SDS011;63545;51.690;5.202;2023-09-07T08:49:20;12.30;;;7.73;;
74995;SDS011;63545;51.690;5.202;2023-09-07T08:51:46;10.27;;;7.85;;
74995;SDS011;63545;51.690;5.202;2023-09-07T08:54:12;11.47;;;8.60;;
74995;SDS011;63545;51.690;5.202;2023-09-07T08:56:37;12.48;;;7.97;;
74995;SDS011;63545;51.690;5.202;2023-09-07T08:59:03;13.00;;;7.80;;
74995;SDS011;63545;51.690;5.202;2023-09-07T09:01:29;15.35;;;7.70;;
74995;SDS011;63545;51.690;5.202;2023-09-07T09:03:56;12.85;;;7.78;;
74995;SDS011;63545;51.690;5.202;2023-09-07T09:06:22;11.65;;;7.75;;
74995;SDS011;63545;51.690;5.202;2023-09-07T09:08:49;13.87;;;7.93;;
74995;SDS011;63545;51.690;5.202;2023-09-07T09:11:16;11.80;;;7.53;;
74995;SDS011;63545;51.690;5.202;2023-09-07T09:13:42;17.58;;;7.55;;
74995;SDS011;63545;51.690;5.202;2023-09-07T09:16:08;15.63;;;7.13;;
74995;SDS011;63545;51.690;5.202;2023-09-07T09:18:34;11.05;;;7.32;;
74995;SDS011;63545;51.690;5.202;2023-09-07T09:21:00;11.97;;;7.60;;
74995;SDS011;63545;51.690;5.202;2023-09-07T09:23:35;10.57;;;7.40;;
74995;SDS011;63545;51.690;5.202;2023-09-07T09:26:02;11.75;;;7.80;;
74995;SDS011;63545;51.690;5.202;2023-09-07T09:28:33;14.17;;;8.07;;
74995;SDS011;63545;51.690;5.202;2023-09-07T09:30:59;13.80;;;7.00;;
74995;SDS011;63545;51.690;5.202;2023-09-07T09:33:25;10.70;;;7.55;;
74995;SDS011;63545;51.690;5.202;2023-09-07T09:35:51;9.95;;;7.40;;
74995;SDS011;63545;51.690;5.202;2023-09-07T09:38:18;10.13;;;6.70;;
74995;SDS011;63545;51.690;5.202;2023-09-07T09:40:43;12.77;;;6.67;;
74995;SDS011;63545;51.690;5.202;2023-09-07T09:43:08;9.03;;;7.20;;
74995;SDS011;63545;51.690;5.202;2023-09-07T09:45:35;11.32;;;6.60;;
74995;SDS011;63545;51.690;5.202;2023-09-07T09:48:00;10.87;;;7.00;;
74995;SDS011;63545;51.690;5.202;2023-09-07T09:50:26;11.90;;;6.93;;
74995;SDS011;63545;51.690;5.202;2023-09-07T09:52:53;11.75;;;6.50;;
74995;SDS011;63545;51.690;5.202;2023-09-07T09:55:18;8.13;;;6.60;;
74995;SDS011;63545;51.690;5.202;2023-09-07T09:57:44;12.18;;;7.07;;
74995;SDS011;63545;51.690;5.202;2023-09-07T10:00:10;10.93;;;6.40;;
74995;SDS011;63545;51.690;5.202;2023-09-07T10:05:38;8.68;;;6.35;;
74995;SDS011;63545;51.690;5.202;2023-09-07T10:08:11;10.13;;;6.50;;
74995;SDS011;63545;51.690;5.202;2023-09-07T10:10:38;9.32;;;6.53;;
74995;SDS011;63545;51.690;5.202;2023-09-07T10:13:05;8.55;;;6.63;;
74995;SDS011;63545;51.690;5.202;2023-09-07T10:15:31;13.73;;;6.40;;
74995;SDS011;63545;51.690;5.202;2023-09-07T10:20:48;8.57;;;5.97;;
74995;SDS011;63545;51.690;5.202;2023-09-07T10:23:15;10.93;;;6.20;;
74995;SDS011;63545;51.690;5.202;2023-09-07T10:25:40;11.70;;;6.03;;
74995;SDS011;63545;51.690;5.202;2023-09-07T10:28:16;13.20;;;6.32;;
74995;SDS011;63545;51.690;5.202;2023-09-07T10:30:45;8.63;;;5.37;;
74995;SDS011;63545;51.690;5.202;2023-09-07T10:33:22;11.38;;;6.47;;
74995;SDS011;63545;51.690;5.202;2023-09-07T10:35:48;9.50;;;6.60;;
74995;SDS011;63545;51.690;5.202;2023-09-07T10:38:13;12.55;;;6.10;;
74995;SDS011;63545;51.690;5.202;2023-09-07T10:40:39;8.60;;;5.83;;
74995;SDS011;63545;51.690;5.202;2023-09-07T10:43:05;11.68;;;6.22;;
74995;SDS011;63545;51.690;5.202;2023-09-07T10:45:30;6.87;;;6.10;;
74995;SDS011;63545;51.690;5.202;2023-09-07T10:47:55;10.33;;;6.27;;
74995;SDS011;63545;51.690;5.202;2023-09-07T10:50:21;10.20;;;6.50;;
74995;SDS011;63545;51.690;5.202;2023-09-07T10:52:46;8.53;;;5.60;;
74995;SDS011;63545;51.690;5.202;2023-09-07T10:55:11;8.93;;;5.77;;
74995;SDS011;63545;51.690;5.202;2023-09-07T10:57:44;6.13;;;5.17;;
74995;SDS011;63545;51.690;5.202;2023-09-07T11:00:10;7.78;;;5.25;;
74995;SDS011;63545;51.690;5.202;2023-09-07T11:02:37;10.35;;;5.30;;
74995;SDS011;63545;51.690;5.202;2023-09-07T11:05:03;9.15;;;4.95;;
74995;SDS011;63545;51.690;5.202;2023-09-07T11:07:28;10.13;;;5.20;;
74995;SDS011;63545;51.690;5.202;2023-09-07T11:09:54;9.00;;;4.93;;
74995;SDS011;63545;51.690;5.202;2023-09-07T11:12:20;9.67;;;4.93;;
74995;SDS011;63545;51.690;5.202;2023-09-07T11:14:53;9.07;;;4.70;;
74995;SDS011;63545;51.690;5.202;2023-09-07T11:17:18;7.20;;;5.03;;
74995;SDS011;63545;51.690;5.202;2023-09-07T11:19:44;7.78;;;5.18;;
74995;SDS011;63545;51.690;5.202;2023-09-07T11:22:09;7.60;;;5.03;;
74995;SDS011;63545;51.690;5.202;2023-09-07T11:24:35;9.82;;;5.28;;
74995;SDS011;63545;51.690;5.202;2023-09-07T11:27:01;10.80;;;5.17;;
74995;SDS011;63545;51.690;5.202;2023-09-07T11:29:27;7.28;;;5.22;;
74995;SDS011;63545;51.690;5.202;2023-09-07T11:32:05;10.32;;;5.40;;
74995;SDS011;63545;51.690;5.202;2023-09-07T11:34:34;8.07;;;5.03;;
74995;SDS011;63545;51.690;5.202;2023-09-07T11:37:01;7.43;;;5.03;;
74995;SDS011;63545;51.690;5.202;2023-09-07T11:39:28;7.87;;;4.87;;
74995;SDS011;63545;51.690;5.202;2023-09-07T11:41:53;9.07;;;5.00;;
74995;SDS011;63545;51.690;5.202;2023-09-07T11:44:19;5.73;;;4.70;;
74995;SDS011;63545;51.690;5.202;2023-09-07T11:46:45;8.18;;;4.68;;
74995;SDS011;63545;51.690;5.202;2023-09-07T11:49:10;8.30;;;4.83;;
74995;SDS011;63545;51.690;5.202;2023-09-07T11:51:36;9.70;;;4.80;;
74995;SDS011;63545;51.690;5.202;2023-09-07T11:54:01;10.17;;;4.93;;
74995;SDS011;63545;51.690;5.202;2023-09-07T11:56:27;9.43;;;4.60;;
74995;SDS011;63545;51.690;5.202;2023-09-07T11:58:53;7.73;;;4.80;;
74995;SDS011;63545;51.690;5.202;2023-09-07T12:01:18;10.25;;;4.78;;
74995;SDS011;63545;51.690;5.202;2023-09-07T12:03:44;5.47;;;4.80;;
74995;SDS011;63545;51.690;5.202;2023-09-07T12:06:09;8.37;;;4.37;;
74995;SDS011;63545;51.690;5.202;2023-09-07T12:08:35;7.50;;;4.77;;
74995;SDS011;63545;51.690;5.202;2023-09-07T12:11:01;6.20;;;4.20;;
74995;SDS011;63545;51.690;5.202;2023-09-07T12:13:27;11.20;;;4.28;;
74995;SDS011;63545;51.690;5.202;2023-09-07T12:15:52;7.43;;;4.20;;
74995;SDS011;63545;51.690;5.202;2023-09-07T12:18:18;6.40;;;4.50;;
74995;SDS011;63545;51.690;5.202;2023-09-07T12:20:43;8.23;;;4.30;;
74995;SDS011;63545;51.690;5.202;2023-09-07T12:23:09;8.13;;;4.03;;
74995;SDS011;63545;51.690;5.202;2023-09-07T12:25:35;8.83;;;4.47;;
74995;SDS011;63545;51.690;5.202;2023-09-07T12:28:01;7.18;;;4.38;;
74995;SDS011;63545;51.690;5.202;2023-09-07T12:30:27;7.70;;;4.25;;
74995;SDS011;63545;51.690;5.202;2023-09-07T12:32:53;7.05;;;4.70;;
74995;SDS011;63545;51.690;5.202;2023-09-07T12:35:18;6.43;;;4.57;;
74995;SDS011;63545;51.690;5.202;2023-09-07T12:37:45;7.90;;;4.32;;
74995;SDS011;63545;51.690;5.202;2023-09-07T12:40:11;7.77;;;4.60;;
74995;SDS011;63545;51.690;5.202;2023-09-07T12:42:41;5.93;;;4.63;;
74995;SDS011;63545;51.690;5.202;2023-09-07T12:45:10;7.80;;;4.18;;
74995;SDS011;63545;51.690;5.202;2023-09-07T12:47:37;6.20;;;4.07;;
74995;SDS011;63545;51.690;5.202;2023-09-07T12:50:03;6.57;;;4.18;;
74995;SDS011;63545;51.690;5.202;2023-09-07T12:52:29;6.35;;;4.25;;
74995;SDS011;63545;51.690;5.202;2023-09-07T12:54:55;8.53;;;4.50;;
74995;SDS011;63545;51.690;5.202;2023-09-07T12:57:20;8.13;;;4.40;;
74995;SDS011;63545;51.690;5.202;2023-09-07T12:59:46;7.77;;;4.30;;
74995;SDS011;63545;51.690;5.202;2023-09-07T13:02:11;8.65;;;4.10;;
74995;SDS011;63545;51.690;5.202;2023-09-07T13:04:36;5.80;;;4.03;;
74995;SDS011;63545;51.690;5.202;2023-09-07T13:07:02;8.87;;;4.43;;
74995;SDS011;63545;51.690;5.202;2023-09-07T13:09:28;5.50;;;4.53;;
74995;SDS011;63545;51.690;5.202;2023-09-07T13:11:53;6.07;;;4.43;;
74995;SDS011;63545;51.690;5.202;2023-09-07T13:14:18;9.00;;;4.33;;
74995;SDS011;63545;51.690;5.202;2023-09-07T13:16:43;5.70;;;4.20;;
74995;SDS011;63545;51.690;5.202;2023-09-07T13:19:09;6.90;;;3.77;;
74995;SDS011;63545;51.690;5.202;2023-09-07T13:21:35;7.15;;;4.53;;
74995;SDS011;63545;51.690;5.202;2023-09-07T13:24:00;6.77;;;4.37;;
74995;SDS011;63545;51.690;5.202;2023-09-07T13:26:26;5.40;;;4.33;;
74995;SDS011;63545;51.690;5.202;2023-09-07T13:28:51;10.60;;;4.10;;
74995;SDS011;63545;51.690;5.202;2023-09-07T13:31:16;4.90;;;4.40;;
74995;SDS011;63545;51.690;5.202;2023-09-07T13:33:42;5.60;;;4.30;;
74995;SDS011;63545;51.690;5.202;2023-09-07T13:36:07;4.97;;;4.00;;
74995;SDS011;63545;51.690;5.202;2023-09-07T13:38:34;8.70;;;4.68;;
74995;SDS011;63545;51.690;5.202;2023-09-07T13:41:00;4.87;;;4.13;;
74995;SDS011;63545;51.690;5.202;2023-09-07T13:43:25;8.27;;;4.30;;
74995;SDS011;63545;51.690;5.202;2023-09-07T13:45:50;5.30;;;4.07;;
74995;SDS011;63545;51.690;5.202;2023-09-07T13:48:16;9.27;;;4.30;;
74995;SDS011;63545;51.690;5.202;2023-09-07T13:50:41;5.40;;;4.20;;
74995;SDS011;63545;51.690;5.202;2023-09-07T13:53:08;5.30;;;4.18;;
74995;SDS011;63545;51.690;5.202;2023-09-07T13:55:33;7.27;;;4.43;;
74995;SDS011;63545;51.690;5.202;2023-09-07T13:57:59;10.63;;;4.57;;
74995;SDS011;63545;51.690;5.202;2023-09-07T14:00:24;5.90;;;4.67;;
74995;SDS011;63545;51.690;5.202;2023-09-07T14:02:51;9.60;;;4.55;;
74995;SDS011;63545;51.690;5.202;2023-09-07T14:05:17;7.72;;;4.80;;
74995;SDS011;63545;51.690;5.202;2023-09-07T14:07:42;11.73;;;4.70;;
74995;SDS011;63545;51.690;5.202;2023-09-07T14:10:08;10.90;;;4.77;;
74995;SDS011;63545;51.690;5.202;2023-09-07T14:12:33;5.43;;;4.20;;
74995;SDS011;63545;51.690;5.202;2023-09-07T14:14:58;7.27;;;4.43;;
74995;SDS011;63545;51.690;5.202;2023-09-07T14:17:24;7.50;;;4.20;;
74995;SDS011;63545;51.690;5.202;2023-09-07T14:19:49;8.65;;;4.30;;
74995;SDS011;63545;51.690;5.202;2023-09-07T14:22:14;5.70;;;4.40;;
74995;SDS011;63545;51.690;5.202;2023-09-07T14:24:40;7.37;;;4.20;;
74995;SDS011;63545;51.690;5.202;2023-09-07T14:27:05;8.27;;;4.37;;
74995;SDS011;63545;51.690;5.202;2023-09-07T14:29:32;5.13;;;4.37;;
74995;SDS011;63545;51.690;5.202;2023-09-07T14:31:58;8.93;;;4.20;;